createdAt,value
2022-10-21T00:00:40.297Z,19.20
2022-10-21T00:03:07.301Z,19.20
2022-10-21T00:05:33.946Z,19.20
2022-10-21T00:08:00.698Z,19.20
2022-10-21T00:10:27.627Z,19.20
2022-10-21T00:12:54.352Z,19.20
2022-10-21T00:15:20.974Z,19.20
2022-10-21T00:17:47.679Z,19.20
2022-10-21T00:20:14.407Z,19.20
2022-10-21T00:22:41.348Z,19.10
2022-10-21T00:25:08.368Z,19.20
2022-10-21T00:27:35.546Z,19.20
2022-10-21T00:30:03.416Z,19.20
2022-10-21T00:32:30.078Z,19.10
2022-10-21T00:34:56.760Z,19.20
2022-10-21T00:37:23.452Z,19.10
2022-10-21T00:39:51.527Z,19.40
2022-10-21T00:42:19.833Z,19.10
2022-10-21T00:45:04.878Z,19.40
2022-10-21T00:47:41.458Z,19.10
2022-10-21T00:50:17.942Z,19.10
2022-10-21T00:52:44.580Z,18.90
2022-10-21T00:55:11.299Z,19.10
2022-10-21T00:57:38.236Z,19.20
2022-10-21T01:00:06.048Z,19.10
2022-10-21T01:02:32.655Z,19.10
2022-10-21T01:05:00.205Z,19.10
2022-10-21T01:07:26.910Z,19.10
2022-10-21T01:09:53.686Z,19.10
2022-10-21T01:12:44.036Z,19.10
2022-10-21T01:15:19.916Z,19.10
2022-10-21T01:17:52.801Z,19.10
2022-10-21T01:20:19.599Z,19.10
2022-10-21T01:22:55.368Z,19.30
2022-10-21T01:25:40.930Z,19.10
2022-10-21T01:28:10.577Z,19.10
2022-10-21T01:30:44.051Z,19.10
2022-10-21T01:33:17.492Z,19.10
2022-10-21T01:36:03.092Z,19.10
2022-10-21T01:38:36.938Z,19.10
2022-10-21T01:41:13.491Z,19.10
2022-10-21T01:43:55.034Z,19.10
2022-10-21T01:46:25.806Z,19.10
2022-10-21T01:48:56.506Z,19.10
2022-10-21T01:53:54.297Z,19.10
2022-10-21T01:56:21.390Z,19.10
2022-10-21T01:58:48.996Z,19.00
2022-10-21T02:01:16.590Z,19.10
2022-10-21T02:03:45.163Z,19.40
2022-10-21T02:06:14.148Z,19.00
2022-10-21T02:08:41.704Z,19.40
2022-10-21T02:11:09.439Z,19.20
2022-10-21T02:13:40.213Z,19.00
2022-10-21T02:16:08.597Z,19.10
2022-10-21T02:18:35.299Z,19.00
2022-10-21T02:21:04.769Z,19.60
2022-10-21T02:23:39.792Z,19.00
2022-10-21T02:26:06.603Z,18.80
2022-10-21T02:28:33.462Z,19.00
2022-10-21T02:31:18.855Z,19.00
2022-10-21T02:33:45.441Z,19.10
2022-10-21T02:36:14.355Z,19.00
2022-10-21T02:38:47.547Z,19.20
2022-10-21T02:41:16.599Z,19.00
2022-10-21T02:43:55.369Z,19.00
2022-10-21T02:46:22.093Z,19.00
2022-10-21T02:48:48.848Z,19.60
2022-10-21T02:51:15.875Z,19.00
2022-10-21T02:53:42.843Z,19.00
2022-10-21T02:56:09.521Z,19.00
2022-10-21T02:58:37.183Z,19.00
2022-10-21T03:01:03.897Z,19.50
2022-10-21T03:03:30.641Z,19.00
2022-10-21T03:05:57.537Z,19.00
2022-10-21T03:08:24.260Z,19.00
2022-10-21T03:10:53.203Z,19.20
2022-10-21T03:13:20.663Z,19.00
2022-10-21T03:15:48.233Z,19.50
2022-10-21T03:18:14.925Z,19.00
2022-10-21T03:20:41.633Z,19.00
2022-10-21T03:23:08.290Z,19.00
2022-10-21T03:25:35.767Z,19.00
2022-10-21T03:28:02.610Z,19.00
2022-10-21T03:30:29.327Z,19.20
2022-10-21T03:32:56.004Z,19.40
2022-10-21T03:35:22.650Z,19.30
2022-10-21T03:37:49.346Z,19.00
2022-10-21T03:40:16.062Z,19.00
2022-10-21T03:42:42.682Z,19.00
2022-10-21T03:45:09.617Z,19.00
2022-10-21T03:47:36.340Z,19.00
2022-10-21T03:50:05.412Z,19.00
2022-10-21T03:52:34.253Z,19.00
2022-10-21T03:55:00.876Z,19.00
2022-10-21T03:57:27.666Z,19.00
2022-10-21T03:59:54.316Z,19.10
2022-10-21T04:02:21.123Z,19.40
2022-10-21T04:04:47.757Z,19.20
2022-10-21T04:07:14.389Z,19.10
2022-10-21T04:09:41.061Z,19.60
2022-10-21T04:12:07.701Z,19.20
2022-10-21T04:14:34.364Z,19.20
2022-10-21T04:17:07.652Z,19.20
2022-10-21T04:19:34.738Z,19.20
2022-10-21T04:22:01.423Z,19.20
2022-10-21T04:24:28.062Z,19.20
2022-10-21T04:26:54.825Z,19.70
2022-10-21T04:29:21.537Z,19.20
2022-10-21T04:31:48.253Z,19.20
2022-10-21T04:34:14.985Z,19.50
2022-10-21T04:36:41.634Z,19.20
2022-10-21T04:39:08.263Z,19.20
2022-10-21T04:41:34.914Z,19.50
2022-10-21T04:44:01.933Z,19.20
2022-10-21T04:46:28.599Z,19.20
2022-10-21T04:48:55.252Z,19.20
2022-10-21T04:51:22.033Z,19.20
2022-10-21T04:53:48.743Z,19.40
2022-10-21T04:56:15.434Z,19.20
2022-10-21T04:58:42.119Z,19.20
2022-10-21T05:01:08.793Z,19.20
2022-10-21T05:03:35.475Z,19.40
2022-10-21T05:06:02.134Z,19.20
2022-10-21T05:08:28.909Z,19.20
2022-10-21T05:11:02.036Z,19.20
2022-10-21T05:13:28.995Z,19.20
2022-10-21T05:15:59.557Z,19.00
2022-10-21T05:18:26.211Z,19.30
2022-10-21T05:20:54.596Z,19.30
2022-10-21T05:23:21.427Z,19.30
2022-10-21T05:25:48.975Z,19.30
2022-10-21T05:28:15.621Z,19.30
2022-10-21T05:33:09.215Z,19.30
2022-10-21T05:35:36.123Z,19.80
2022-10-21T05:38:02.963Z,19.30
2022-10-21T05:40:29.683Z,19.30
2022-10-21T05:42:56.322Z,19.30
2022-10-21T05:45:23.144Z,19.30
2022-10-21T05:47:51.000Z,19.30
2022-10-21T05:50:17.855Z,19.30
2022-10-21T05:52:44.616Z,19.30
2022-10-21T05:55:11.910Z,19.30
2022-10-21T05:57:38.790Z,19.30
2022-10-21T06:00:06.045Z,19.30
2022-10-21T06:02:32.723Z,19.30
2022-10-21T06:04:59.396Z,19.80
2022-10-21T06:07:26.036Z,19.30
2022-10-21T06:09:54.782Z,19.30
2022-10-21T06:12:22.004Z,19.30
2022-10-21T06:14:48.671Z,19.20
2022-10-21T06:17:15.363Z,19.80
2022-10-21T06:19:44.848Z,19.30
2022-10-21T06:22:14.670Z,19.30
2022-10-21T06:24:41.291Z,19.30
2022-10-21T06:27:08.663Z,19.30
2022-10-21T06:29:35.399Z,19.30
2022-10-21T06:32:02.107Z,19.30
2022-10-21T06:34:28.718Z,19.30
2022-10-21T06:36:55.351Z,19.30
2022-10-21T06:39:21.965Z,19.30
2022-10-21T06:41:48.574Z,19.30
2022-10-21T06:44:15.182Z,19.30
2022-10-21T06:46:41.790Z,19.30
2022-10-21T06:49:08.398Z,19.30
2022-10-21T06:51:35.037Z,19.30
2022-10-21T06:54:02.078Z,19.30
2022-10-21T06:56:29.033Z,19.30
2022-10-21T06:58:56.849Z,19.30
2022-10-21T07:01:34.758Z,19.30
2022-10-21T07:04:08.850Z,19.30
2022-10-21T07:06:35.898Z,19.30
2022-10-21T07:09:03.857Z,19.30
2022-10-21T07:11:30.603Z,19.30
2022-10-21T07:13:57.298Z,19.30
2022-10-21T07:16:25.140Z,19.30
2022-10-21T07:18:51.909Z,19.30
2022-10-21T07:21:19.693Z,19.30
2022-10-21T07:23:48.958Z,19.30
2022-10-21T07:26:15.701Z,19.40
2022-10-21T07:28:46.787Z,19.30
2022-10-21T07:31:20.466Z,19.40
2022-10-21T07:33:47.511Z,19.30
2022-10-21T07:36:21.892Z,19.30
2022-10-21T07:38:50.086Z,19.30
2022-10-21T07:41:18.155Z,19.30
2022-10-21T07:43:45.348Z,19.30
2022-10-21T07:46:11.975Z,19.40
2022-10-21T07:48:38.648Z,19.30
2022-10-21T07:51:06.596Z,19.30
2022-10-21T07:53:34.551Z,19.30
2022-10-21T07:56:06.082Z,19.40
2022-10-21T07:58:32.861Z,19.40
2022-10-21T08:01:03.146Z,19.40
2022-10-21T08:03:30.215Z,19.40
2022-10-21T08:05:59.255Z,19.40
2022-10-21T08:08:26.612Z,19.40
2022-10-21T08:10:54.479Z,19.40
2022-10-21T08:13:21.698Z,19.40
2022-10-21T08:15:49.433Z,19.40
2022-10-21T08:18:16.481Z,19.40
2022-10-21T08:20:44.181Z,19.50
2022-10-21T08:23:11.976Z,19.60
2022-10-21T08:25:38.941Z,20.20
2022-10-21T08:28:08.636Z,19.70
2022-10-21T08:30:35.449Z,19.80
2022-10-21T08:33:02.152Z,19.70
2022-10-21T08:35:28.827Z,19.90
2022-10-21T08:37:55.625Z,19.70
2022-10-21T08:40:22.809Z,20.00
2022-10-21T08:42:49.476Z,19.70
2022-10-21T08:45:23.234Z,19.70
2022-10-21T08:47:53.030Z,19.70
2022-10-21T08:50:22.029Z,19.60
2022-10-21T08:52:57.468Z,19.60
2022-10-21T08:55:34.606Z,19.60
2022-10-21T08:58:03.581Z,19.60
2022-10-21T09:00:44.267Z,19.60
2022-10-21T09:03:16.194Z,19.60
2022-10-21T09:05:57.852Z,19.60
2022-10-21T09:08:51.491Z,18.80
2022-10-21T09:11:56.783Z,19.60
2022-10-21T09:14:47.375Z,19.60
2022-10-21T09:17:30.666Z,20.20
2022-10-21T09:20:19.747Z,19.50
2022-10-21T09:23:18.558Z,19.60
2022-10-21T09:26:45.113Z,19.60
2022-10-21T09:29:32.752Z,19.30
2022-10-21T09:32:15.328Z,19.60
2022-10-21T09:34:57.417Z,19.50
2022-10-21T09:50:39.540Z,19.50
2022-10-21T09:52:44.666Z,19.60
2022-10-21T09:58:43.972Z,19.50
2022-10-21T10:01:16.281Z,19.50
2022-10-21T10:03:45.746Z,19.60
2022-10-21T10:06:15.394Z,20.10
2022-10-21T10:08:43.485Z,19.60
2022-10-21T10:11:13.326Z,20.00
2022-10-21T10:16:44.485Z,19.50
2022-10-21T10:19:18.326Z,19.50
2022-10-21T10:21:45.947Z,19.60
2022-10-21T10:24:20.866Z,19.40
2022-10-21T10:26:50.070Z,19.60
2022-10-21T10:29:19.881Z,19.60
2022-10-21T10:31:51.060Z,19.60
2022-10-21T10:34:37.645Z,19.60
2022-10-21T10:37:26.941Z,19.60
2022-10-21T10:39:57.684Z,19.50
2022-10-21T10:42:38.133Z,20.10
2022-10-21T10:45:26.512Z,19.90
2022-10-21T10:48:15.711Z,19.60
2022-10-21T10:50:53.898Z,19.60
2022-10-21T10:53:23.705Z,19.60
2022-10-21T10:56:04.275Z,19.50
2022-10-21T10:58:33.488Z,19.60
2022-10-21T11:01:02.467Z,19.60
2022-10-21T11:03:37.938Z,20.20
2022-10-21T11:06:16.641Z,19.60
2022-10-21T11:08:46.419Z,19.60
2022-10-21T11:11:22.494Z,19.60
2022-10-21T11:29:19.850Z,19.60
2022-10-21T11:32:10.179Z,19.60
2022-10-21T11:34:51.469Z,19.60
2022-10-21T11:37:50.803Z,19.60
2022-10-21T11:40:40.057Z,19.60
2022-10-21T11:43:21.254Z,19.60
2022-10-21T11:46:17.630Z,19.60
2022-10-21T11:48:50.215Z,19.60
2022-10-21T11:51:32.422Z,19.60
2022-10-21T11:54:12.452Z,19.60
2022-10-21T11:56:44.409Z,19.60
2022-10-21T11:59:11.183Z,19.60
2022-10-21T12:01:50.361Z,19.60
2022-10-21T12:04:33.344Z,19.60
2022-10-21T12:07:25.210Z,19.60
2022-10-21T12:09:51.915Z,19.60
2022-10-21T12:12:30.575Z,19.40
2022-10-21T12:15:02.403Z,19.60
2022-10-21T12:17:32.277Z,19.60
2022-10-21T12:20:01.739Z,19.80
2022-10-21T12:22:35.203Z,19.80
2022-10-21T12:32:06.303Z,19.60
2022-10-21T12:34:33.313Z,19.60
2022-10-21T12:37:02.124Z,19.60
2022-10-21T12:39:35.191Z,19.60
2022-10-21T12:42:05.848Z,19.60
2022-10-21T12:44:33.245Z,19.60
2022-10-21T12:47:04.827Z,19.60
2022-10-21T12:49:47.738Z,19.60
2022-10-21T12:52:17.787Z,19.60
2022-10-21T12:54:52.664Z,19.60
2022-10-21T12:57:39.567Z,20.00
2022-10-21T13:00:33.790Z,19.70
2022-10-21T13:03:00.460Z,19.70
2022-10-21T13:05:36.443Z,19.70
2022-10-21T13:08:15.439Z,19.60
2022-10-21T13:11:02.247Z,19.60
2022-10-21T13:13:29.045Z,19.60
2022-10-21T13:15:56.236Z,19.60
2022-10-21T13:18:42.829Z,19.60
2022-10-21T13:21:22.805Z,19.70
2022-10-21T13:23:51.912Z,20.00
2022-10-21T13:26:20.676Z,19.80
2022-10-21T13:28:58.138Z,20.40
2022-10-21T13:31:25.024Z,19.60
2022-10-21T13:33:53.586Z,19.70
2022-10-21T13:39:08.041Z,19.90
2022-10-21T13:41:34.831Z,19.90
2022-10-21T13:44:03.199Z,20.00
2022-10-21T13:46:37.821Z,20.00
2022-10-21T13:49:25.906Z,20.00
2022-10-21T13:51:52.933Z,20.00
2022-10-21T13:54:20.040Z,20.00
2022-10-21T13:56:46.761Z,19.90
2022-10-21T13:59:25.196Z,19.90
2022-10-21T14:01:53.104Z,19.90
2022-10-21T14:04:24.796Z,19.90
2022-10-21T14:06:53.571Z,19.90
2022-10-21T14:09:34.656Z,20.40
2022-10-21T14:12:05.381Z,19.90
2022-10-21T14:14:37.582Z,19.90
2022-10-21T14:17:09.251Z,19.90
2022-10-21T14:19:37.966Z,19.90
2022-10-21T14:24:44.268Z,19.80
2022-10-21T14:27:12.811Z,19.80
2022-10-21T14:29:39.894Z,19.80
2022-10-21T14:32:06.670Z,19.80
2022-10-21T14:34:34.740Z,19.80
2022-10-21T14:37:11.852Z,19.80
2022-10-21T14:39:39.503Z,19.80
2022-10-21T14:42:08.254Z,19.80
2022-10-21T14:44:34.908Z,19.80
2022-10-21T14:47:01.614Z,19.80
2022-10-21T14:49:32.998Z,19.80
2022-10-21T14:52:04.410Z,19.80
2022-10-21T14:54:36.836Z,19.80
2022-10-21T14:57:04.550Z,19.80
2022-10-21T14:59:37.155Z,19.80
2022-10-21T15:02:04.050Z,19.80
2022-10-21T15:04:50.357Z,19.80
2022-10-21T15:07:29.113Z,19.80
2022-10-21T15:09:56.707Z,19.80
2022-10-21T15:12:23.320Z,19.80
2022-10-21T15:14:50.000Z,19.80
2022-10-21T15:17:16.879Z,19.80
2022-10-21T15:19:48.058Z,19.80
2022-10-21T15:22:34.528Z,19.80
2022-10-21T15:25:06.067Z,19.80
2022-10-21T15:27:37.044Z,20.00
2022-10-21T15:30:13.455Z,19.80
2022-10-21T15:32:40.084Z,19.80
2022-10-21T15:35:07.376Z,19.80
2022-10-21T15:37:33.992Z,19.80
2022-10-21T15:40:00.691Z,19.90
2022-10-21T15:42:27.350Z,19.80
2022-10-21T15:44:53.995Z,19.80
2022-10-21T15:47:20.828Z,19.80
2022-10-21T15:49:49.272Z,19.80
2022-10-21T15:52:15.943Z,19.70
2022-10-21T15:54:42.760Z,19.80
2022-10-21T15:57:17.861Z,19.80
2022-10-21T15:59:44.563Z,19.80
2022-10-21T16:02:15.585Z,19.80
2022-10-21T16:04:44.149Z,19.80
2022-10-21T16:07:18.403Z,20.20
2022-10-21T16:09:45.099Z,19.80
2022-10-21T16:12:11.765Z,19.80
2022-10-21T16:14:38.409Z,20.00
2022-10-21T16:17:05.063Z,20.00
2022-10-21T16:19:31.727Z,19.70
2022-10-21T16:21:58.366Z,19.70
2022-10-21T16:24:25.092Z,19.80
2022-10-21T16:26:51.737Z,19.80
2022-10-21T16:29:20.601Z,19.80
2022-10-21T16:31:47.551Z,19.80
2022-10-21T16:34:14.269Z,19.70
2022-10-21T16:36:40.968Z,19.70
2022-10-21T16:39:13.862Z,19.80
2022-10-21T16:41:40.577Z,19.80
2022-10-21T16:44:07.233Z,19.80
2022-10-21T16:46:38.786Z,19.80
2022-10-21T16:49:12.083Z,19.80
2022-10-21T16:51:40.707Z,19.80
2022-10-21T16:54:07.433Z,19.70
2022-10-21T16:56:34.273Z,19.90
2022-10-21T16:59:01.149Z,19.80
2022-10-21T17:01:27.944Z,19.80
2022-10-21T17:03:54.650Z,19.80
2022-10-21T17:06:22.912Z,19.80
2022-10-21T17:08:50.393Z,19.80
2022-10-21T17:11:19.859Z,19.70
2022-10-21T17:13:46.527Z,20.00
2022-10-21T17:16:13.291Z,19.80
2022-10-21T17:18:40.009Z,19.80
2022-10-21T17:21:07.601Z,19.80
2022-10-21T17:23:34.319Z,19.80
2022-10-21T17:26:01.050Z,19.60
2022-10-21T17:28:27.716Z,20.00
2022-10-21T17:30:54.976Z,21.20
2022-10-21T17:33:21.878Z,19.80
2022-10-21T17:35:49.032Z,19.80
2022-10-21T17:38:15.859Z,20.20
2022-10-21T17:40:42.852Z,20.00
2022-10-21T17:43:09.536Z,19.80
2022-10-21T17:45:36.177Z,19.80
2022-10-21T17:48:03.354Z,19.80
2022-10-21T17:50:31.900Z,19.80
2022-10-21T17:52:59.426Z,20.00
2022-10-21T17:55:27.087Z,19.80
2022-10-21T17:57:53.769Z,19.80
2022-10-21T18:00:20.522Z,20.10
2022-10-21T18:02:47.185Z,19.70
2022-10-21T18:05:13.848Z,19.80
2022-10-21T18:07:40.786Z,19.70
2022-10-21T18:10:08.041Z,19.70
2022-10-21T18:12:35.614Z,19.80
2022-10-21T18:15:02.364Z,20.00
2022-10-21T18:17:28.990Z,19.80
2022-10-21T18:19:55.662Z,19.80
2022-10-21T18:22:22.368Z,20.30
2022-10-21T18:24:48.987Z,19.80
2022-10-21T18:27:15.707Z,19.80
2022-10-21T18:29:42.300Z,19.80
2022-10-21T18:32:13.716Z,19.90
2022-10-21T18:34:42.390Z,19.80
2022-10-21T18:37:09.258Z,19.80
2022-10-21T18:39:35.982Z,19.40
2022-10-21T18:42:02.661Z,19.80
2022-10-21T18:44:30.405Z,19.80
2022-10-21T18:46:57.112Z,19.80
2022-10-21T18:49:23.863Z,19.80
2022-10-21T18:51:50.535Z,19.80
2022-10-21T18:54:17.204Z,19.80
2022-10-21T18:56:45.029Z,19.80
2022-10-21T18:59:12.460Z,20.00
2022-10-21T19:01:40.332Z,19.80
2022-10-21T19:04:07.278Z,19.80
2022-10-21T19:06:33.950Z,20.10
2022-10-21T19:09:03.709Z,19.70
2022-10-21T19:11:30.757Z,19.80
2022-10-21T19:13:57.551Z,19.80
2022-10-21T19:16:24.276Z,19.80
2022-10-21T19:18:50.968Z,19.80
2022-10-21T19:21:18.431Z,19.80
2022-10-21T19:23:45.127Z,19.90
2022-10-21T19:26:11.958Z,20.00
2022-10-21T19:28:39.079Z,20.10
2022-10-21T19:31:07.322Z,20.10
2022-10-21T19:33:34.023Z,20.10
2022-10-21T19:36:01.254Z,20.50
2022-10-21T19:38:43.293Z,20.10
2022-10-21T19:41:11.739Z,20.10
2022-10-21T19:43:38.949Z,20.10
2022-10-21T19:46:06.285Z,20.60
2022-10-21T19:48:34.336Z,20.00
2022-10-21T19:51:00.981Z,20.00
2022-10-21T19:53:27.836Z,20.00
2022-10-21T19:55:55.021Z,19.90
2022-10-21T19:58:21.715Z,19.90
2022-10-21T20:00:48.381Z,19.90
2022-10-21T20:03:15.090Z,19.90
2022-10-21T20:05:42.118Z,19.90
2022-10-21T20:08:08.820Z,19.90
2022-10-21T20:10:35.436Z,20.00
2022-10-21T20:13:02.038Z,19.80
2022-10-21T20:15:28.772Z,19.80
2022-10-21T20:17:55.446Z,19.80
2022-10-21T20:20:22.189Z,19.80
2022-10-21T20:22:48.847Z,19.80
2022-10-21T20:25:15.524Z,19.80
2022-10-21T20:27:42.363Z,19.80
2022-10-21T20:30:09.355Z,19.70
2022-10-21T20:32:36.075Z,19.70
2022-10-21T20:35:02.834Z,19.80
2022-10-21T20:37:29.467Z,19.70
2022-10-21T20:39:56.124Z,19.70
2022-10-21T20:42:22.743Z,19.70
2022-10-21T20:44:49.377Z,20.10
2022-10-21T20:47:17.052Z,19.70
2022-10-21T20:49:43.745Z,19.70
2022-10-21T20:52:10.399Z,19.70
2022-10-21T20:54:37.007Z,20.20
2022-10-21T20:57:03.760Z,19.70
2022-10-21T20:59:30.414Z,19.60
2022-10-21T21:01:57.062Z,19.60
2022-10-21T21:04:25.342Z,19.60
2022-10-21T21:06:52.072Z,19.60
2022-10-21T21:09:43.714Z,19.60
2022-10-21T21:12:06.387Z,19.60
2022-10-21T21:14:33.321Z,19.60
2022-10-21T21:16:59.991Z,19.60
2022-10-21T21:19:26.724Z,19.60
2022-10-21T21:21:53.443Z,19.60
2022-10-21T21:24:20.338Z,19.60
2022-10-21T21:26:46.955Z,19.60
2022-10-21T21:29:13.952Z,19.80
2022-10-21T21:31:41.290Z,19.90
2022-10-21T21:34:08.180Z,20.30
2022-10-21T21:36:35.104Z,20.20
2022-10-21T21:39:01.909Z,19.70
2022-10-21T21:41:28.952Z,19.60
2022-10-21T21:43:56.942Z,19.60
2022-10-21T21:46:24.126Z,19.60
2022-10-21T21:48:54.881Z,19.60
2022-10-21T21:51:24.540Z,19.60
2022-10-21T21:53:52.297Z,19.60
2022-10-21T21:56:19.787Z,19.60
2022-10-21T21:58:47.222Z,19.60
2022-10-21T22:01:18.165Z,19.60
2022-10-21T22:03:46.324Z,19.60
2022-10-21T22:06:13.466Z,20.10
2022-10-21T22:08:40.904Z,19.60
2022-10-21T22:11:09.169Z,19.60
2022-10-21T22:13:36.284Z,19.60
2022-10-21T22:16:03.128Z,19.60
2022-10-21T22:18:29.884Z,19.60
2022-10-21T22:21:00.478Z,19.60
2022-10-21T22:23:27.242Z,19.60
2022-10-21T22:25:54.230Z,19.60
2022-10-21T22:28:21.127Z,19.60
2022-10-21T22:30:58.174Z,19.60
2022-10-21T22:33:25.451Z,19.60
2022-10-21T22:35:52.147Z,19.60
2022-10-21T22:38:18.979Z,19.60
2022-10-21T22:40:45.631Z,19.50
2022-10-21T22:43:12.284Z,19.50
2022-10-21T22:45:38.934Z,19.50
2022-10-21T22:48:05.604Z,19.70
2022-10-21T22:50:32.247Z,19.50
2022-10-21T22:52:58.948Z,19.50
2022-10-21T22:55:25.570Z,19.50
2022-10-21T22:57:52.212Z,19.50
2022-10-21T23:00:18.880Z,19.50
2022-10-21T23:02:45.524Z,19.50
2022-10-21T23:05:12.208Z,19.50
2022-10-21T23:07:38.930Z,19.50
2022-10-21T23:12:37.972Z,19.50
2022-10-21T23:15:05.556Z,19.50
2022-10-21T23:17:32.193Z,19.50
2022-10-21T23:19:58.829Z,19.50
2022-10-21T23:22:25.543Z,19.50
2022-10-21T23:24:52.255Z,20.10
2022-10-21T23:27:18.971Z,19.90
2022-10-21T23:29:45.579Z,19.00
2022-10-21T23:32:12.331Z,19.50
2022-10-21T23:34:38.960Z,19.50
2022-10-21T23:37:05.659Z,19.50
2022-10-21T23:39:32.347Z,19.50
2022-10-21T23:41:58.960Z,19.50
2022-10-21T23:44:27.494Z,19.80
2022-10-21T23:46:54.127Z,19.50
2022-10-21T23:49:20.775Z,19.50
2022-10-21T23:51:47.427Z,19.60
2022-10-21T23:54:14.344Z,19.50
2022-10-21T23:56:41.012Z,19.50
2022-10-21T23:59:07.732Z,19.50
